createdAt,value
2023-04-15T00:00:17.792Z,81.26
2023-04-15T00:01:11.904Z,82.93
2023-04-15T00:02:14.342Z,82.54
2023-04-15T00:03:08.849Z,82.80
2023-04-15T00:04:00.532Z,83.11
2023-04-15T00:04:52.171Z,81.78
2023-04-15T00:05:43.680Z,81.22
2023-04-15T00:06:37.527Z,82.73
2023-04-15T00:07:29.611Z,83.17
2023-04-15T00:08:21.090Z,83.15
2023-04-15T00:09:12.561Z,81.98
2023-04-15T00:10:05.376Z,82.91
2023-04-15T00:11:05.651Z,83.22
2023-04-15T00:11:57.655Z,81.60
2023-04-15T00:12:49.200Z,82.53
2023-04-15T00:13:43.981Z,83.11
2023-04-15T00:14:38.681Z,83.70
2023-04-15T00:15:30.169Z,83.89
2023-04-15T00:16:21.844Z,82.74
2023-04-15T00:17:13.489Z,82.43
2023-04-15T00:18:04.841Z,83.30
2023-04-15T00:18:56.845Z,82.38
2023-04-15T00:19:48.308Z,82.54
2023-04-15T00:20:39.929Z,83.17
2023-04-15T00:21:33.902Z,82.65
2023-04-15T00:22:26.797Z,83.29
2023-04-15T00:23:18.702Z,82.93
2023-04-15T00:24:10.120Z,82.02
2023-04-15T00:25:02.124Z,83.24
2023-04-15T00:25:53.625Z,83.66
2023-04-15T00:26:45.041Z,82.36
2023-04-15T00:27:36.763Z,82.72
2023-04-15T00:28:28.495Z,83.18
2023-04-15T00:29:22.595Z,83.38
2023-04-15T00:30:14.084Z,83.59
2023-04-15T00:31:05.660Z,83.78
2023-04-15T00:32:00.196Z,83.43
2023-04-15T00:32:53.990Z,83.61
2023-04-15T00:33:48.650Z,83.49
2023-04-15T00:34:40.166Z,83.40
2023-04-15T00:35:32.703Z,84.73
2023-04-15T00:36:24.476Z,84.64
2023-04-15T00:37:15.982Z,84.18
2023-04-15T00:38:10.187Z,84.83
2023-04-15T00:39:02.876Z,85.06
2023-04-15T00:39:54.392Z,83.66
2023-04-15T00:40:46.156Z,84.19
2023-04-15T00:41:42.451Z,84.83
2023-04-15T00:42:34.910Z,85.00
2023-04-15T00:43:26.645Z,83.33
2023-04-15T00:44:18.853Z,84.21
2023-04-15T00:45:10.980Z,84.45
2023-04-15T00:46:05.907Z,84.14
2023-04-15T00:46:59.426Z,84.19
2023-04-15T00:47:51.281Z,84.54
2023-04-15T00:48:43.789Z,83.42
2023-04-15T00:49:36.634Z,84.34
2023-04-15T00:50:30.571Z,84.25
2023-04-15T00:51:22.292Z,83.52
2023-04-15T00:52:18.516Z,83.72
2023-04-15T00:53:09.997Z,84.49
2023-04-15T00:54:04.333Z,83.72
2023-04-15T00:54:55.985Z,85.09
2023-04-15T00:55:47.569Z,84.86
2023-04-15T00:56:39.886Z,84.35
2023-04-15T00:57:31.669Z,85.10
2023-04-15T00:58:27.972Z,83.52
2023-04-15T00:59:22.866Z,84.27
2023-04-15T01:00:14.573Z,84.48
2023-04-15T01:01:06.690Z,84.44
2023-04-15T01:01:58.412Z,84.44
2023-04-15T01:02:52.632Z,83.69
2023-04-15T01:03:44.974Z,83.79
2023-04-15T01:04:36.992Z,84.04
2023-04-15T01:05:29.443Z,83.76
2023-04-15T01:06:22.154Z,82.44
2023-04-15T01:07:13.950Z,83.30
2023-04-15T01:08:06.140Z,83.80
2023-04-15T01:08:58.774Z,83.45
2023-04-15T01:09:50.890Z,84.11
2023-04-15T01:10:45.356Z,83.29
2023-04-15T01:11:37.776Z,83.32
2023-04-15T01:12:29.477Z,83.75
2023-04-15T01:13:24.233Z,84.51
2023-04-15T01:14:16.109Z,83.24
2023-04-15T01:15:08.369Z,84.25
2023-04-15T01:16:00.951Z,83.29
2023-04-15T01:16:53.183Z,83.46
2023-04-15T01:17:46.788Z,83.14
2023-04-15T01:18:38.817Z,83.75
2023-04-15T01:19:31.643Z,82.56
2023-04-15T01:20:23.406Z,83.48
2023-04-15T01:21:14.887Z,84.54
2023-04-15T01:22:09.405Z,84.11
2023-04-15T01:23:03.600Z,83.94
2023-04-15T01:23:56.868Z,83.71
2023-04-15T01:25:01.052Z,84.63
2023-04-15T01:25:53.745Z,84.64
2023-04-15T01:26:46.451Z,83.22
2023-04-15T01:27:42.262Z,83.19
2023-04-15T01:28:35.406Z,84.11
2023-04-15T01:29:27.485Z,83.65
2023-04-15T01:30:18.936Z,83.45
2023-04-15T01:31:13.661Z,83.83
2023-04-15T01:32:05.822Z,84.11
2023-04-15T01:32:57.431Z,83.87
2023-04-15T01:33:48.941Z,83.09
2023-04-15T01:34:40.395Z,83.81
2023-04-15T01:35:32.222Z,83.24
2023-04-15T01:36:23.915Z,84.22
2023-04-15T01:37:20.061Z,84.08
2023-04-15T01:38:13.588Z,84.31
2023-04-15T01:39:09.708Z,84.58
2023-04-15T01:40:01.175Z,84.38
2023-04-15T01:40:55.381Z,84.39
2023-04-15T01:41:49.368Z,85.13
2023-04-15T01:42:41.166Z,84.91
2023-04-15T01:43:36.348Z,85.84
2023-04-15T01:44:27.794Z,83.78
2023-04-15T01:45:19.578Z,85.30
2023-04-15T01:46:11.105Z,85.70
2023-04-15T01:47:02.686Z,84.34
2023-04-15T01:47:54.698Z,84.02
2023-04-15T01:48:46.758Z,84.39
2023-04-15T01:49:38.195Z,84.09
2023-04-15T01:50:30.816Z,84.27
2023-04-15T01:51:23.517Z,84.71
2023-04-15T01:52:15.671Z,83.75
2023-04-15T01:53:07.365Z,84.52
2023-04-15T01:53:58.903Z,85.46
2023-04-15T01:54:51.286Z,85.36
2023-04-15T01:55:44.028Z,84.69
2023-04-15T01:56:35.571Z,85.27
2023-04-15T01:57:28.359Z,84.73
2023-04-15T01:58:22.526Z,85.03
2023-04-15T01:59:17.042Z,84.31
2023-04-15T02:00:09.244Z,83.82
2023-04-15T02:01:07.111Z,84.14
2023-04-15T02:02:00.383Z,84.78
2023-04-15T02:02:53.324Z,83.89
2023-04-15T02:03:46.814Z,83.75
2023-04-15T02:04:40.258Z,84.08
2023-04-15T02:05:31.895Z,84.47
2023-04-15T02:06:23.466Z,84.73
2023-04-15T02:07:17.681Z,83.77
2023-04-15T02:08:09.569Z,83.85
2023-04-15T02:09:04.236Z,83.73
2023-04-15T02:09:55.618Z,84.58
2023-04-15T02:10:49.218Z,83.94
2023-04-15T02:11:40.799Z,83.90
2023-04-15T02:12:32.255Z,83.94
2023-04-15T02:13:24.042Z,83.60
2023-04-15T02:14:15.544Z,84.39
2023-04-15T02:15:07.673Z,83.82
2023-04-15T02:15:59.732Z,84.17
2023-04-15T02:16:51.541Z,84.17
2023-04-15T02:17:45.910Z,84.25
2023-04-15T02:18:41.610Z,85.35
2023-04-15T02:19:35.539Z,85.76
2023-04-15T02:20:30.282Z,85.40
2023-04-15T02:21:23.163Z,85.85
2023-04-15T02:22:18.403Z,84.93
2023-04-15T02:23:11.658Z,85.33
2023-04-15T02:24:07.443Z,84.80
2023-04-15T02:24:59.055Z,84.85
2023-04-15T02:25:53.923Z,85.56
2023-04-15T02:26:46.643Z,85.12
2023-04-15T02:27:38.411Z,85.51
2023-04-15T02:28:29.897Z,84.34
2023-04-15T02:29:23.644Z,84.99
2023-04-15T02:30:18.065Z,84.87
2023-04-15T02:31:09.628Z,84.81
2023-04-15T02:32:01.660Z,84.91
2023-04-15T02:32:53.282Z,85.31
2023-04-15T02:33:45.068Z,85.65
2023-04-15T02:34:37.613Z,86.21
2023-04-15T02:35:29.121Z,86.36
2023-04-15T02:36:21.319Z,85.75
2023-04-15T02:37:13.756Z,84.96
2023-04-15T02:38:05.216Z,86.24
2023-04-15T02:38:57.543Z,85.94
2023-04-15T02:39:49.093Z,86.08
2023-04-15T02:40:40.635Z,85.84
2023-04-15T02:41:32.027Z,85.30
2023-04-15T02:42:23.768Z,85.61
2023-04-15T02:43:15.475Z,85.64
2023-04-15T02:44:11.347Z,85.63
2023-04-15T02:45:03.409Z,85.45
2023-04-15T02:45:58.600Z,84.72
2023-04-15T02:46:52.513Z,85.11
2023-04-15T02:47:45.824Z,85.12
2023-04-15T02:48:39.588Z,85.72
2023-04-15T02:49:31.148Z,85.08
2023-04-15T02:50:23.578Z,84.29
2023-04-15T02:51:20.329Z,84.21
2023-04-15T02:52:11.920Z,84.67
2023-04-15T02:53:03.339Z,84.00
2023-04-15T02:53:55.092Z,84.89
2023-04-15T02:54:46.656Z,85.21
2023-04-15T02:55:38.133Z,85.45
2023-04-15T02:56:31.021Z,85.67
2023-04-15T02:57:22.511Z,84.51
2023-04-15T02:58:14.004Z,85.35
2023-04-15T02:59:05.462Z,85.70
2023-04-15T02:59:57.046Z,84.85
2023-04-15T03:00:50.909Z,84.41
2023-04-15T03:01:44.228Z,84.53
2023-04-15T03:02:40.103Z,85.01
2023-04-15T03:03:32.639Z,85.55
2023-04-15T03:04:24.281Z,85.38
2023-04-15T03:05:18.292Z,85.57
2023-04-15T03:06:16.220Z,86.37
2023-04-15T03:07:07.701Z,87.16
2023-04-15T03:08:01.648Z,87.16
2023-04-15T03:08:56.927Z,87.43
2023-04-15T03:09:48.624Z,87.76
2023-04-15T03:10:39.993Z,88.44
2023-04-15T03:11:33.648Z,88.15
2023-04-15T03:12:26.197Z,88.48
2023-04-15T03:13:21.603Z,87.87
2023-04-15T03:14:13.497Z,87.83
2023-04-15T03:15:09.789Z,88.24
2023-04-15T03:16:07.328Z,88.09
2023-04-15T03:16:59.541Z,86.26
2023-04-15T03:17:51.139Z,85.97
2023-04-15T03:18:45.354Z,85.65
2023-04-15T03:19:37.507Z,85.57
2023-04-15T03:20:29.340Z,85.42
2023-04-15T03:21:20.863Z,85.87
2023-04-15T03:22:14.305Z,85.17
2023-04-15T03:23:06.215Z,85.67
2023-04-15T03:23:57.644Z,86.84
2023-04-15T03:24:49.839Z,86.22
2023-04-15T03:25:42.108Z,86.67
2023-04-15T03:26:33.896Z,87.05
2023-04-15T03:27:29.882Z,86.49
2023-04-15T03:28:25.219Z,86.01
2023-04-15T03:29:16.922Z,85.63
2023-04-15T03:30:08.966Z,86.13
2023-04-15T03:31:03.656Z,87.33
2023-04-15T03:31:55.659Z,86.63
2023-04-15T03:32:47.537Z,86.26
2023-04-15T03:33:39.329Z,86.05
2023-04-15T03:34:30.728Z,86.30
2023-04-15T03:35:22.445Z,86.34
2023-04-15T03:36:14.171Z,86.20
2023-04-15T03:37:05.651Z,85.53
2023-04-15T03:37:59.681Z,86.07
2023-04-15T03:38:51.359Z,85.88
2023-04-15T03:39:42.878Z,86.84
2023-04-15T03:40:34.262Z,86.26
2023-04-15T03:41:26.673Z,86.25
2023-04-15T03:42:18.092Z,85.95
2023-04-15T03:43:09.749Z,85.55
2023-04-15T03:44:01.292Z,85.84
2023-04-15T03:44:53.000Z,85.37
2023-04-15T03:45:44.462Z,85.86
2023-04-15T03:46:36.185Z,86.01
2023-04-15T03:47:27.627Z,86.50
2023-04-15T03:48:19.397Z,86.64
2023-04-15T03:49:11.099Z,85.91
2023-04-15T03:50:07.113Z,84.95
2023-04-15T03:50:58.638Z,84.91
2023-04-15T03:51:50.644Z,84.90
2023-04-15T03:52:45.579Z,85.54
2023-04-15T03:53:37.060Z,84.39
2023-04-15T03:54:28.618Z,84.60
2023-04-15T03:55:22.657Z,84.73
2023-04-15T03:56:14.275Z,85.24
2023-04-15T03:57:05.721Z,85.71
2023-04-15T03:57:59.592Z,85.33
2023-04-15T03:58:51.054Z,86.30
2023-04-15T03:59:42.450Z,85.66
2023-04-15T04:00:33.899Z,86.18
2023-04-15T04:01:25.387Z,84.95
2023-04-15T04:02:17.254Z,84.92
2023-04-15T04:03:09.111Z,84.72
2023-04-15T04:04:00.976Z,85.58
2023-04-15T04:04:52.596Z,84.72
2023-04-15T04:05:44.720Z,85.93
2023-04-15T04:06:36.233Z,86.57
2023-04-15T04:07:27.855Z,85.13
2023-04-15T04:08:20.604Z,85.96
2023-04-15T04:09:14.482Z,85.81
2023-04-15T04:10:06.624Z,86.10
2023-04-15T04:10:58.105Z,86.17
2023-04-15T04:11:49.528Z,86.33
2023-04-15T04:12:41.434Z,85.77
2023-04-15T04:13:32.838Z,84.81
2023-04-15T04:14:29.907Z,85.92
2023-04-15T04:15:23.836Z,85.52
2023-04-15T04:16:15.512Z,85.58
2023-04-15T04:17:07.274Z,85.91
2023-04-15T04:18:01.321Z,86.34
2023-04-15T04:18:52.725Z,85.85
2023-04-15T04:19:44.389Z,86.53
2023-04-15T04:20:36.265Z,86.77
2023-04-15T04:21:28.019Z,87.03
2023-04-15T04:22:23.804Z,87.12
2023-04-15T04:23:15.507Z,88.02
2023-04-15T04:24:07.102Z,87.83
2023-04-15T04:24:59.931Z,87.65
2023-04-15T04:25:54.015Z,87.57
2023-04-15T04:26:46.865Z,88.22
2023-04-15T04:27:40.916Z,87.88
2023-04-15T04:28:32.558Z,86.48
2023-04-15T04:29:24.178Z,86.34
2023-04-15T04:30:16.163Z,86.72
2023-04-15T04:31:08.016Z,86.58
2023-04-15T04:31:59.780Z,86.26
2023-04-15T04:32:52.990Z,86.60
2023-04-15T04:33:46.872Z,86.28
2023-04-15T04:34:38.412Z,85.89
2023-04-15T04:35:29.905Z,86.72
2023-04-15T04:36:21.543Z,87.13
2023-04-15T04:37:13.168Z,86.21
2023-04-15T04:38:04.951Z,85.20
2023-04-15T04:38:57.137Z,85.70
2023-04-15T04:39:48.652Z,86.08
2023-04-15T04:40:40.483Z,85.87
2023-04-15T04:41:32.347Z,85.40
2023-04-15T04:42:24.012Z,86.68
2023-04-15T04:43:16.316Z,86.42
2023-04-15T04:44:07.744Z,86.90
2023-04-15T04:44:59.170Z,87.11
2023-04-15T04:45:50.661Z,86.80
2023-04-15T04:46:42.079Z,86.29
2023-04-15T04:47:33.623Z,86.20
2023-04-15T04:48:25.235Z,86.54
2023-04-15T04:49:16.788Z,86.52
2023-04-15T04:50:09.063Z,87.38
2023-04-15T04:51:00.892Z,87.43
2023-04-15T04:51:54.652Z,86.00
2023-04-15T04:52:46.498Z,86.75
2023-04-15T04:53:38.211Z,86.99
2023-04-15T04:54:31.086Z,87.44
2023-04-15T04:55:22.578Z,86.91
2023-04-15T04:56:14.027Z,86.72
2023-04-15T04:57:05.507Z,86.88
2023-04-15T04:57:56.923Z,86.32
2023-04-15T04:58:50.169Z,85.99
2023-04-15T04:59:44.074Z,86.37
2023-04-15T05:00:35.898Z,86.59
2023-04-15T05:01:27.802Z,85.99
2023-04-15T05:02:19.452Z,86.15
2023-04-15T05:03:11.707Z,86.31
2023-04-15T05:04:05.180Z,86.53
2023-04-15T05:04:56.942Z,87.48
2023-04-15T05:05:51.876Z,88.04
2023-04-15T05:06:43.522Z,88.51
2023-04-15T05:07:35.010Z,88.28
2023-04-15T05:08:26.501Z,88.28
2023-04-15T05:09:17.970Z,88.39
2023-04-15T05:10:10.076Z,88.27
2023-04-15T05:11:02.502Z,88.55
2023-04-15T05:11:54.206Z,88.63
2023-04-15T05:12:45.849Z,88.55
2023-04-15T05:13:38.707Z,87.95
2023-04-15T05:14:31.064Z,87.80
2023-04-15T05:15:22.506Z,87.84
2023-04-15T05:16:14.104Z,88.38
2023-04-15T05:17:05.686Z,88.23
2023-04-15T05:17:57.197Z,88.61
2023-04-15T05:18:48.630Z,88.54
2023-04-15T05:19:40.137Z,88.57
2023-04-15T05:20:31.652Z,86.48
2023-04-15T05:21:23.460Z,86.48
2023-04-15T05:22:15.167Z,86.66
2023-04-15T05:23:06.843Z,87.20
2023-04-15T05:24:00.907Z,87.45
2023-04-15T05:24:54.469Z,87.58
2023-04-15T05:25:45.998Z,87.50
2023-04-15T05:26:37.623Z,87.43
2023-04-15T05:27:29.144Z,87.41
2023-04-15T05:28:22.993Z,87.32
2023-04-15T05:29:14.471Z,87.49
2023-04-15T05:30:07.205Z,87.33
2023-04-15T05:30:58.943Z,87.61
2023-04-15T05:31:50.938Z,87.97
2023-04-15T05:32:42.456Z,87.36
2023-04-15T05:33:34.211Z,86.59
2023-04-15T05:34:26.201Z,87.29
2023-04-15T05:35:17.800Z,86.79
2023-04-15T05:36:09.739Z,87.82
2023-04-15T05:37:01.343Z,86.04
2023-04-15T05:37:52.781Z,86.37
2023-04-15T05:38:44.271Z,86.65
2023-04-15T05:39:35.967Z,86.08
2023-04-15T05:40:28.063Z,85.07
2023-04-15T05:41:19.945Z,86.09
2023-04-15T05:42:11.715Z,86.19
2023-04-15T05:43:05.375Z,85.69
2023-04-15T05:43:59.306Z,87.03
2023-04-15T05:44:50.940Z,87.60
2023-04-15T05:45:42.579Z,88.04
2023-04-15T05:46:34.175Z,88.13
2023-04-15T05:47:25.592Z,87.98
2023-04-15T05:48:19.148Z,88.47
2023-04-15T05:49:11.981Z,87.77
2023-04-15T05:50:04.416Z,86.86
2023-04-15T05:50:56.025Z,86.33
2023-04-15T05:51:48.243Z,87.32
2023-04-15T05:52:46.698Z,87.37
2023-04-15T05:53:41.939Z,86.29
2023-04-15T05:54:33.517Z,87.13
2023-04-15T05:55:25.066Z,87.81
2023-04-15T05:56:16.838Z,88.11
2023-04-15T05:57:08.233Z,87.69
2023-04-15T05:57:59.862Z,87.35
2023-04-15T05:58:53.377Z,86.71
2023-04-15T05:59:45.294Z,87.79
2023-04-15T06:00:36.790Z,87.19
2023-04-15T06:01:28.444Z,87.58
2023-04-15T06:02:20.266Z,88.00
2023-04-15T06:03:12.412Z,86.79
2023-04-15T06:04:04.151Z,87.37
2023-04-15T06:04:58.205Z,87.87
2023-04-15T06:05:49.799Z,87.67
2023-04-15T06:06:44.533Z,87.36
2023-04-15T06:07:36.816Z,87.20
2023-04-15T06:08:29.608Z,86.79
2023-04-15T06:09:21.520Z,86.05
2023-04-15T06:10:13.029Z,85.24
2023-04-15T06:11:04.555Z,85.39
2023-04-15T06:11:56.917Z,84.65
2023-04-15T06:12:48.644Z,84.54
2023-04-15T06:13:40.113Z,86.12
2023-04-15T06:14:31.788Z,86.12
2023-04-15T06:15:23.329Z,86.18
2023-04-15T06:16:17.425Z,85.95
2023-04-15T06:17:09.111Z,84.72
2023-04-15T06:18:00.598Z,85.48
2023-04-15T06:18:52.113Z,86.35
2023-04-15T06:19:43.539Z,86.43
2023-04-15T06:20:34.970Z,86.67
2023-04-15T06:21:27.008Z,85.88
2023-04-15T06:22:18.434Z,85.27
2023-04-15T06:23:09.879Z,84.83
2023-04-15T06:24:01.702Z,85.24
2023-04-15T06:24:55.553Z,85.94
2023-04-15T06:25:47.262Z,85.92
2023-04-15T06:26:43.892Z,85.46
2023-04-15T06:27:35.374Z,86.01
2023-04-15T06:28:26.776Z,86.24
2023-04-15T06:29:18.229Z,86.52
2023-04-15T06:30:10.232Z,86.33
2023-04-15T06:31:02.191Z,85.53
2023-04-15T06:31:53.710Z,85.17
2023-04-15T06:32:46.453Z,84.04
2023-04-15T06:33:38.192Z,84.06
2023-04-15T06:34:29.986Z,83.40
2023-04-15T06:35:22.362Z,83.79
2023-04-15T06:36:14.093Z,84.03
2023-04-15T06:37:06.396Z,81.15
2023-04-15T06:38:02.379Z,80.77
2023-04-15T06:38:54.120Z,76.52
2023-04-15T06:39:45.810Z,76.27
2023-04-15T06:40:37.631Z,76.78
2023-04-15T06:41:29.214Z,77.90
2023-04-15T06:42:20.860Z,78.87
2023-04-15T06:43:13.224Z,76.43
2023-04-15T06:44:04.970Z,75.42
2023-04-15T06:44:56.678Z,77.53
2023-04-15T06:45:50.900Z,78.57
2023-04-15T06:46:42.365Z,78.13
2023-04-15T06:47:33.792Z,76.43
2023-04-15T06:48:25.240Z,76.06
2023-04-15T06:49:17.127Z,73.96
2023-04-15T06:50:09.200Z,76.43
2023-04-15T06:51:00.909Z,77.56
2023-04-15T06:51:52.728Z,74.44
2023-04-15T06:52:44.355Z,77.45
2023-04-15T06:53:42.162Z,75.81
2023-04-15T06:54:36.183Z,74.88
2023-04-15T06:55:29.804Z,74.16
2023-04-15T06:56:21.865Z,76.86
2023-04-15T06:57:17.840Z,78.78
2023-04-15T06:58:09.250Z,77.94
2023-04-15T06:59:01.610Z,77.33
2023-04-15T06:59:54.559Z,78.49
2023-04-15T07:00:48.422Z,78.00
2023-04-15T07:01:41.347Z,78.31
2023-04-15T07:02:33.421Z,78.19
2023-04-15T07:03:25.026Z,76.23
2023-04-15T07:04:16.593Z,77.78
2023-04-15T07:05:11.322Z,78.58
2023-04-15T07:06:06.326Z,79.27
2023-04-15T07:06:57.753Z,80.86
2023-04-15T07:07:49.248Z,79.27
2023-04-15T07:08:40.764Z,77.24
2023-04-15T07:09:32.649Z,76.96
2023-04-15T07:10:25.543Z,77.26
2023-04-15T07:11:17.446Z,77.32
2023-04-15T07:12:10.919Z,76.54
2023-04-15T07:13:05.938Z,75.10
2023-04-15T07:14:00.415Z,77.30
2023-04-15T07:14:51.873Z,74.10
2023-04-15T07:15:43.313Z,74.96
2023-04-15T07:16:34.840Z,75.79
2023-04-15T07:17:26.321Z,76.98
2023-04-15T07:18:20.409Z,77.28
2023-04-15T07:19:11.876Z,75.75
2023-04-15T07:20:05.059Z,76.80
2023-04-15T07:20:56.470Z,75.41
2023-04-15T07:21:48.081Z,76.93
2023-04-15T07:22:40.725Z,75.63
2023-04-15T07:23:34.476Z,73.48
2023-04-15T07:24:26.843Z,74.82
2023-04-15T07:25:18.992Z,75.05
2023-04-15T07:26:11.281Z,75.06
2023-04-15T07:27:06.041Z,73.98
2023-04-15T07:27:57.523Z,74.27
2023-04-15T07:28:49.338Z,75.00
2023-04-15T07:29:41.274Z,75.84
2023-04-15T07:30:35.969Z,74.68
2023-04-15T07:31:27.688Z,75.52
2023-04-15T07:32:20.209Z,75.45
2023-04-15T07:33:12.101Z,70.92
2023-04-15T07:34:05.041Z,71.26
2023-04-15T07:34:57.001Z,69.58
2023-04-15T07:35:49.156Z,70.97
2023-04-15T07:36:40.805Z,68.81
2023-04-15T07:37:34.305Z,69.91
2023-04-15T07:38:28.344Z,69.87
2023-04-15T07:39:22.593Z,69.63
2023-04-15T07:40:16.391Z,67.91
2023-04-15T07:41:10.565Z,67.94
2023-04-15T07:42:02.358Z,68.23
2023-04-15T07:42:54.004Z,67.86
2023-04-15T07:43:45.815Z,65.14
2023-04-15T07:44:39.874Z,67.35
2023-04-15T07:45:32.036Z,68.02
2023-04-15T07:46:27.320Z,68.36
2023-04-15T07:47:18.916Z,67.37
2023-04-15T07:48:10.890Z,68.78
2023-04-15T07:49:02.581Z,67.85
2023-04-15T07:49:54.343Z,69.32
2023-04-15T07:50:45.881Z,64.87
2023-04-15T07:51:37.395Z,64.14
2023-04-15T07:52:28.901Z,65.21
2023-04-15T07:53:20.558Z,62.20
2023-04-15T07:54:11.975Z,64.36
2023-04-15T07:55:03.654Z,65.67
2023-04-15T07:55:55.109Z,66.13
2023-04-15T07:56:46.734Z,66.94
2023-04-15T07:57:38.466Z,67.71
2023-04-15T07:58:29.942Z,63.88
2023-04-15T07:59:21.530Z,64.09
2023-04-15T08:00:13.696Z,63.24
2023-04-15T08:01:06.853Z,64.97
2023-04-15T08:01:58.418Z,62.82
2023-04-15T08:02:50.253Z,63.09
2023-04-15T08:03:42.329Z,62.28
2023-04-15T08:04:34.250Z,62.61
2023-04-15T08:05:28.670Z,61.57
2023-04-15T08:06:23.025Z,60.89
2023-04-15T08:07:14.754Z,59.73
2023-04-15T08:08:07.177Z,60.71
2023-04-15T08:08:58.701Z,60.13
2023-04-15T08:09:50.261Z,63.16
2023-04-15T08:10:41.759Z,60.68
2023-04-15T08:11:33.292Z,60.62
2023-04-15T08:12:24.888Z,60.64
2023-04-15T08:13:17.241Z,60.54
2023-04-15T08:14:08.674Z,61.00
2023-04-15T08:15:02.820Z,59.59
2023-04-15T08:16:19.457Z,58.98
2023-04-15T08:17:10.870Z,59.93
2023-04-15T08:18:02.433Z,58.20
2023-04-15T08:18:56.251Z,58.34
2023-04-15T08:19:48.371Z,61.48
2023-04-15T08:20:40.447Z,61.10
2023-04-15T08:21:32.226Z,58.31
2023-04-15T08:22:24.058Z,58.28
2023-04-15T08:23:15.804Z,58.51
2023-04-15T08:24:08.213Z,60.21
2023-04-15T08:25:00.936Z,60.25
2023-04-15T08:25:55.334Z,57.78
2023-04-15T08:26:47.424Z,60.68
2023-04-15T08:27:38.992Z,59.51
2023-04-15T08:28:30.928Z,56.68
2023-04-15T08:29:22.360Z,57.72
2023-04-15T08:30:14.500Z,60.22
2023-04-15T08:31:08.338Z,60.34
2023-04-15T08:32:07.809Z,59.34
2023-04-15T08:32:59.411Z,56.89
2023-04-15T08:33:52.582Z,58.86
2023-04-15T08:34:44.147Z,57.21
2023-04-15T08:35:35.638Z,56.66
2023-04-15T08:36:27.172Z,57.43
2023-04-15T08:37:18.931Z,58.39
2023-04-15T08:38:10.675Z,59.03
2023-04-15T08:39:04.839Z,58.46
2023-04-15T08:39:56.716Z,58.83
2023-04-15T08:40:48.267Z,57.63
2023-04-15T08:42:02.815Z,59.23
2023-04-15T08:42:59.585Z,57.13
2023-04-15T08:43:58.664Z,58.57
2023-04-15T08:44:51.129Z,56.80
2023-04-15T08:45:44.364Z,58.38
2023-04-15T08:46:35.954Z,57.68
2023-04-15T08:47:33.834Z,56.34
2023-04-15T08:48:29.607Z,55.12
2023-04-15T08:49:22.677Z,56.26
2023-04-15T08:50:15.196Z,58.41
2023-04-15T08:51:08.480Z,57.25
2023-04-15T08:52:01.032Z,57.03
2023-04-15T08:52:55.645Z,56.57
2023-04-15T08:53:47.772Z,59.04
2023-04-15T08:54:42.146Z,55.57
2023-04-15T08:55:39.992Z,55.95
2023-04-15T08:56:33.338Z,55.82
2023-04-15T08:57:27.646Z,58.16
2023-04-15T08:58:19.997Z,58.40
2023-04-15T08:59:12.425Z,56.77
2023-04-15T09:00:05.736Z,53.99
2023-04-15T09:00:57.593Z,53.46
2023-04-15T09:01:53.516Z,54.48
2023-04-15T09:02:45.352Z,55.54
2023-04-15T09:03:37.657Z,57.94
2023-04-15T09:04:29.837Z,56.63
2023-04-15T09:05:22.988Z,57.30
2023-04-15T09:06:18.387Z,56.99
2023-04-15T09:07:09.851Z,58.32
2023-04-15T09:08:02.484Z,54.81
2023-04-15T09:08:56.911Z,57.24
2023-04-15T09:09:48.790Z,55.20
2023-04-15T09:10:49.368Z,54.44
2023-04-15T09:11:41.843Z,54.12
2023-04-15T09:12:37.076Z,54.45
2023-04-15T09:13:29.133Z,54.00
2023-04-15T09:14:23.181Z,55.33
2023-04-15T09:15:16.349Z,54.44
2023-04-15T09:16:10.582Z,54.98
2023-04-15T09:17:04.361Z,56.13
2023-04-15T09:17:57.068Z,57.13
2023-04-15T09:18:51.372Z,55.12
2023-04-15T09:19:42.970Z,56.20
2023-04-15T09:20:42.544Z,56.24
2023-04-15T09:21:34.539Z,54.58
2023-04-15T09:22:32.621Z,56.09
2023-04-15T09:23:24.230Z,55.23
2023-04-15T09:24:15.669Z,57.06
2023-04-15T09:25:16.194Z,57.09
2023-04-15T09:26:08.302Z,55.64
2023-04-15T09:27:00.557Z,56.68
2023-04-15T09:27:58.984Z,56.05
2023-04-15T09:28:50.626Z,54.36
2023-04-15T09:29:42.872Z,54.58
2023-04-15T09:30:35.195Z,55.80
2023-04-15T09:31:29.983Z,57.05
2023-04-15T09:32:23.418Z,55.05
2023-04-15T09:33:16.421Z,55.89
2023-04-15T09:34:08.157Z,53.99
2023-04-15T09:35:11.141Z,54.80
2023-04-15T09:36:05.823Z,55.31
2023-04-15T09:36:57.687Z,56.55
2023-04-15T09:37:49.952Z,56.31
2023-04-15T09:38:58.892Z,53.73
2023-04-15T09:39:52.993Z,53.81
2023-04-15T09:40:45.694Z,52.41
2023-04-15T09:41:40.381Z,53.73
2023-04-15T09:42:34.248Z,54.35
2023-04-15T09:43:40.783Z,55.97
2023-04-15T09:44:32.606Z,53.30
2023-04-15T09:45:27.159Z,55.15
2023-04-15T09:46:20.960Z,54.81
2023-04-15T09:47:30.385Z,54.36
2023-04-15T09:48:27.163Z,54.46
2023-04-15T09:49:19.452Z,57.09
2023-04-15T09:50:11.082Z,55.31
2023-04-15T09:51:02.658Z,55.63
2023-04-15T09:52:05.756Z,55.05
2023-04-15T09:52:59.504Z,56.13
2023-04-15T09:53:54.876Z,53.67
2023-04-15T09:54:46.590Z,55.48
2023-04-15T09:55:38.122Z,54.36
2023-04-15T09:56:42.424Z,54.31
2023-04-15T09:57:36.513Z,55.55
2023-04-15T09:58:35.175Z,55.88
2023-04-15T09:59:26.659Z,56.16
2023-04-15T10:00:18.085Z,54.45
2023-04-15T10:01:11.492Z,56.53
2023-04-15T10:02:08.892Z,57.73
2023-04-15T10:03:01.208Z,56.46
2023-04-15T10:03:56.107Z,57.18
2023-04-15T10:04:49.075Z,55.68
2023-04-15T10:05:40.893Z,56.65
2023-04-15T10:06:33.903Z,55.39
2023-04-15T10:07:28.117Z,55.95
2023-04-15T10:08:25.093Z,56.49
2023-04-15T10:09:17.720Z,55.92
2023-04-15T10:10:10.800Z,56.13
2023-04-15T10:11:04.494Z,58.26
2023-04-15T10:11:58.282Z,58.52
2023-04-15T10:12:53.589Z,55.98
2023-04-15T10:13:47.307Z,57.20
2023-04-15T10:14:43.143Z,57.72
2023-04-15T10:15:36.134Z,56.14
2023-04-15T10:16:32.825Z,56.89
2023-04-15T10:17:33.790Z,58.07
2023-04-15T10:18:27.213Z,56.23
2023-04-15T10:19:27.539Z,57.22
2023-04-15T10:20:19.808Z,55.88
2023-04-15T10:21:13.998Z,57.67
2023-04-15T10:22:06.580Z,58.78
2023-04-15T10:22:58.418Z,58.20
2023-04-15T10:23:50.418Z,56.57
2023-04-15T10:24:43.422Z,57.20
2023-04-15T10:25:35.228Z,56.90
2023-04-15T10:26:27.306Z,56.45
2023-04-15T10:27:19.726Z,56.39
2023-04-15T10:28:11.902Z,56.86
2023-04-15T10:29:03.823Z,55.48
2023-04-15T10:29:59.904Z,55.05
2023-04-15T10:30:53.494Z,57.04
2023-04-15T10:31:46.993Z,56.48
2023-04-15T10:32:39.956Z,56.65
2023-04-15T10:33:33.478Z,56.09
2023-04-15T10:34:26.237Z,56.43
2023-04-15T10:35:21.819Z,55.54
2023-04-15T10:36:16.494Z,55.08
2023-04-15T10:37:11.667Z,55.12
2023-04-15T10:38:03.258Z,56.49
2023-04-15T10:38:57.629Z,54.52
2023-04-15T10:39:49.079Z,55.15
2023-04-15T10:40:40.849Z,55.51
2023-04-15T10:41:34.478Z,56.21
2023-04-15T10:42:34.478Z,54.63
2023-04-15T10:43:29.082Z,56.13
2023-04-15T10:44:20.686Z,55.85
2023-04-15T10:45:21.189Z,54.95
2023-04-15T10:46:12.915Z,56.27
2023-04-15T10:47:12.750Z,57.07
2023-04-15T10:48:08.118Z,55.89
2023-04-15T10:49:16.526Z,54.42
2023-04-15T10:50:10.242Z,54.65
2023-04-15T10:51:06.970Z,55.79
2023-04-15T10:51:59.597Z,54.04
2023-04-15T10:52:52.652Z,54.79
2023-04-15T10:53:44.331Z,57.03
2023-04-15T10:54:38.777Z,54.72
2023-04-15T10:55:35.575Z,55.12
2023-04-15T10:56:33.513Z,54.69
2023-04-15T10:57:25.321Z,54.29
2023-04-15T10:58:16.790Z,53.35
2023-04-15T10:59:08.199Z,54.86
2023-04-15T11:00:06.649Z,54.42
2023-04-15T11:00:58.068Z,55.21
2023-04-15T11:02:00.002Z,55.01
2023-04-15T11:03:05.009Z,54.77
2023-04-15T11:03:56.716Z,54.71
2023-04-15T11:04:58.661Z,55.09
2023-04-15T11:05:53.549Z,53.47
2023-04-15T11:06:48.215Z,55.27
2023-04-15T11:07:44.853Z,54.55
2023-04-15T11:08:57.196Z,55.87
2023-04-15T11:09:49.840Z,54.40
2023-04-15T11:10:41.278Z,54.17
2023-04-15T11:12:10.414Z,54.09
2023-04-15T11:13:15.886Z,53.63
2023-04-15T11:14:16.061Z,53.49
2023-04-15T11:15:46.736Z,54.13
2023-04-15T11:16:47.106Z,54.83
2023-04-15T11:17:41.943Z,53.92
2023-04-15T11:18:36.750Z,55.09
2023-04-15T11:19:36.134Z,55.62
2023-04-15T11:20:27.659Z,55.81
2023-04-15T11:21:24.214Z,56.99
2023-04-15T11:22:15.891Z,56.41
2023-04-15T11:23:14.387Z,57.29
2023-04-15T11:24:07.011Z,55.94
2023-04-15T11:24:58.519Z,54.27